createdAt,value
2018-10-03T00:01:46.730Z,57.30
2018-10-03T00:04:14.165Z,57.30
2018-10-03T00:06:41.633Z,57.40
2018-10-03T00:09:09.794Z,57.60
2018-10-03T00:11:37.251Z,57.70
2018-10-03T00:14:05.236Z,57.80
2018-10-03T00:16:32.715Z,57.80
2018-10-03T00:19:00.173Z,57.90
2018-10-03T00:21:27.662Z,58.00
2018-10-03T00:23:55.171Z,58.10
2018-10-03T00:26:22.637Z,58.20
2018-10-03T00:28:50.146Z,58.20
2018-10-03T00:31:17.577Z,58.10
2018-10-03T00:33:45.039Z,58.20
2018-10-03T00:36:12.456Z,58.10
2018-10-03T00:38:39.972Z,58.20
2018-10-03T00:41:07.593Z,58.10
2018-10-03T00:43:35.066Z,58.00
2018-10-03T00:46:02.539Z,57.80
2018-10-03T00:48:29.985Z,58.70
2018-10-03T00:50:57.409Z,59.20
2018-10-03T00:53:24.871Z,59.30
2018-10-03T00:55:52.370Z,59.90
2018-10-03T00:58:19.866Z,59.50
2018-10-03T01:00:47.369Z,59.20
2018-10-03T01:03:14.973Z,59.20
2018-10-03T01:05:42.436Z,59.00
2018-10-03T01:08:09.961Z,59.30
2018-10-03T01:10:37.450Z,58.90
2018-10-03T01:13:05.098Z,58.90
2018-10-03T01:15:32.573Z,58.90
2018-10-03T01:18:00.043Z,58.70
2018-10-03T01:20:27.500Z,58.50
2018-10-03T01:22:54.925Z,58.20
2018-10-03T01:25:22.361Z,58.10
2018-10-03T01:27:49.826Z,57.90
2018-10-03T01:30:17.259Z,57.50
2018-10-03T01:32:44.774Z,57.50
2018-10-03T01:35:12.203Z,57.60
2018-10-03T01:37:40.475Z,57.40
2018-10-03T01:40:07.918Z,58.00
2018-10-03T01:42:35.405Z,57.80
2018-10-03T01:45:02.901Z,57.90
2018-10-03T01:47:30.327Z,58.00
2018-10-03T01:49:57.888Z,57.90
2018-10-03T01:52:25.449Z,58.10
2018-10-03T01:54:52.934Z,58.60
2018-10-03T01:57:20.603Z,59.00
2018-10-03T01:59:48.135Z,59.00
2018-10-03T02:02:15.618Z,59.10
2018-10-03T02:04:43.159Z,59.30
2018-10-03T02:07:10.639Z,59.40
2018-10-03T02:09:38.126Z,59.40
2018-10-03T02:12:05.923Z,59.30
2018-10-03T02:14:33.409Z,59.50
2018-10-03T02:17:01.000Z,59.70
2018-10-03T02:19:28.510Z,60.00
2018-10-03T02:21:55.994Z,60.00
2018-10-03T02:24:23.546Z,60.00
2018-10-03T02:26:51.082Z,59.90
2018-10-03T02:29:18.630Z,59.80
2018-10-03T02:31:46.207Z,59.70
2018-10-03T02:34:13.657Z,59.40
2018-10-03T02:36:41.226Z,59.50
2018-10-03T02:39:09.303Z,59.50
2018-10-03T02:41:36.837Z,59.40
2018-10-03T02:44:04.559Z,59.20
2018-10-03T02:46:32.006Z,59.40
2018-10-03T02:48:59.613Z,59.60
2018-10-03T02:51:27.099Z,60.10
2018-10-03T02:53:54.687Z,59.70
2018-10-03T02:56:22.145Z,59.60
2018-10-03T02:58:49.597Z,59.70
2018-10-03T03:01:17.068Z,59.90
2018-10-03T03:03:44.510Z,60.50
2018-10-03T03:06:12.010Z,60.70
2018-10-03T03:08:39.659Z,61.10
2018-10-03T03:11:07.274Z,61.30
2018-10-03T03:13:34.958Z,61.60
2018-10-03T03:16:02.337Z,62.00
2018-10-03T03:18:30.101Z,62.40
2018-10-03T03:20:57.638Z,62.80
2018-10-03T03:23:25.065Z,63.20
2018-10-03T03:25:52.486Z,63.60
2018-10-03T03:28:19.899Z,64.10
2018-10-03T03:30:47.506Z,64.50
2018-10-03T03:33:14.979Z,64.90
2018-10-03T03:35:42.433Z,64.90
2018-10-03T03:38:09.934Z,65.00
2018-10-03T03:40:37.518Z,65.30
2018-10-03T03:43:04.998Z,65.60
2018-10-03T03:45:32.514Z,66.20
2018-10-03T03:48:00.131Z,66.50
2018-10-03T03:50:27.935Z,67.40
2018-10-03T03:52:55.539Z,67.20
2018-10-03T03:55:23.051Z,67.50
2018-10-03T03:57:50.651Z,67.50
2018-10-03T04:00:18.188Z,67.50
2018-10-03T04:02:45.675Z,67.40
2018-10-03T04:05:13.155Z,67.30
2018-10-03T04:07:40.791Z,67.20
2018-10-03T04:10:08.301Z,66.90
2018-10-03T04:12:35.851Z,66.80
2018-10-03T04:15:03.343Z,66.40
2018-10-03T04:17:30.864Z,66.40
2018-10-03T04:19:58.325Z,66.40
2018-10-03T04:22:25.825Z,66.10
2018-10-03T04:24:53.321Z,66.10
2018-10-03T04:27:20.807Z,65.90
2018-10-03T04:29:48.370Z,65.80
2018-10-03T04:32:15.835Z,65.80
2018-10-03T04:34:43.346Z,65.70
2018-10-03T04:37:10.867Z,66.00
2018-10-03T04:39:38.337Z,65.30
2018-10-03T04:42:06.093Z,65.10
2018-10-03T04:44:33.663Z,65.00
2018-10-03T04:47:01.154Z,65.00
2018-10-03T04:49:28.674Z,65.20
2018-10-03T04:51:56.157Z,65.70
2018-10-03T04:54:23.713Z,66.20
2018-10-03T04:56:51.160Z,66.60
2018-10-03T04:59:18.698Z,66.90
2018-10-03T05:01:46.250Z,66.60
2018-10-03T05:04:13.946Z,66.50
2018-10-03T05:06:41.382Z,66.60
2018-10-03T05:09:08.914Z,66.50
2018-10-03T05:11:36.526Z,66.80
2018-10-03T05:14:04.045Z,67.40
2018-10-03T05:16:31.466Z,67.20
2018-10-03T05:18:59.061Z,67.40
2018-10-03T05:21:26.512Z,67.40
2018-10-03T05:23:54.013Z,67.40
2018-10-03T05:26:21.502Z,67.30
2018-10-03T05:28:48.918Z,67.70
2018-10-03T05:31:16.375Z,67.80
2018-10-03T05:33:43.852Z,67.80
2018-10-03T05:36:11.385Z,66.90
2018-10-03T05:38:38.935Z,66.90
2018-10-03T05:41:06.437Z,66.90
2018-10-03T05:43:33.886Z,67.00
2018-10-03T05:46:01.446Z,67.50
2018-10-03T05:48:29.071Z,67.60
2018-10-03T05:50:56.561Z,67.20
2018-10-03T05:53:24.051Z,67.10
2018-10-03T05:55:51.531Z,67.00
2018-10-03T05:58:18.987Z,67.40
2018-10-03T06:00:46.517Z,67.10
2018-10-03T06:03:14.005Z,66.90
2018-10-03T06:05:41.454Z,66.70
2018-10-03T06:08:08.933Z,66.20
2018-10-03T06:10:36.446Z,66.10
2018-10-03T06:13:03.947Z,66.00
2018-10-03T06:15:31.367Z,65.60
2018-10-03T06:17:59.113Z,65.40
2018-10-03T06:20:26.569Z,65.60
2018-10-03T06:22:54.048Z,65.70
2018-10-03T06:25:21.651Z,65.40
2018-10-03T06:27:49.256Z,64.80
2018-10-03T06:30:16.823Z,64.70
2018-10-03T06:32:44.403Z,65.00
2018-10-03T06:35:11.878Z,65.60
2018-10-03T06:37:39.302Z,65.10
2018-10-03T06:40:06.954Z,64.30
2018-10-03T06:42:34.417Z,64.50
2018-10-03T06:45:01.878Z,65.20
2018-10-03T06:47:29.346Z,63.90
2018-10-03T06:49:56.893Z,63.60
2018-10-03T06:52:24.418Z,63.30
2018-10-03T06:54:51.951Z,62.80
2018-10-03T06:57:19.456Z,63.30
2018-10-03T06:59:46.994Z,64.30
2018-10-03T07:02:14.524Z,66.00
2018-10-03T07:04:41.943Z,65.40
2018-10-03T07:07:09.466Z,65.20
2018-10-03T07:09:37.082Z,64.90
2018-10-03T07:12:04.609Z,64.80
2018-10-03T07:14:32.198Z,64.60
2018-10-03T07:16:59.593Z,65.90
2018-10-03T07:19:27.062Z,67.90
2018-10-03T07:21:54.669Z,68.40
2018-10-03T07:24:22.089Z,68.50
2018-10-03T07:26:49.669Z,69.00
2018-10-03T07:29:17.104Z,69.30
2018-10-03T07:31:44.547Z,69.50
2018-10-03T07:34:12.036Z,69.50
2018-10-03T07:36:39.498Z,69.60
2018-10-03T07:39:08.213Z,69.40
2018-10-03T07:41:35.726Z,69.90
2018-10-03T07:44:03.350Z,70.10
2018-10-03T07:46:30.905Z,70.00
2018-10-03T07:48:58.353Z,70.00
2018-10-03T07:51:25.890Z,70.00
2018-10-03T07:53:53.405Z,70.40
2018-10-03T07:56:20.932Z,70.30
2018-10-03T07:58:48.473Z,70.60
2018-10-03T08:01:15.986Z,71.00
2018-10-03T08:03:43.482Z,70.50
2018-10-03T08:06:10.996Z,70.80
2018-10-03T08:08:38.466Z,69.90
2018-10-03T08:11:06.107Z,70.00
2018-10-03T08:13:33.610Z,69.20
2018-10-03T08:16:01.174Z,68.50
2018-10-03T08:18:28.654Z,68.60
2018-10-03T08:20:56.090Z,68.70
2018-10-03T08:23:23.663Z,68.10
2018-10-03T08:25:51.117Z,67.20
2018-10-03T08:28:18.549Z,67.20
2018-10-03T08:30:46.032Z,67.50
2018-10-03T08:33:13.571Z,67.70
2018-10-03T08:35:41.035Z,67.20
2018-10-03T08:38:08.580Z,68.00
2018-10-03T08:40:36.187Z,68.00
2018-10-03T08:43:03.621Z,68.10
2018-10-03T08:45:31.151Z,67.90
2018-10-03T08:47:58.586Z,67.30
2018-10-03T08:50:26.030Z,66.70
2018-10-03T08:52:53.659Z,67.60
2018-10-03T08:55:21.147Z,66.60
2018-10-03T08:57:48.762Z,66.80
2018-10-03T09:00:16.230Z,65.90
2018-10-03T09:02:43.767Z,65.00
2018-10-03T09:05:11.758Z,66.50
2018-10-03T09:07:39.246Z,66.20
2018-10-03T09:10:06.743Z,66.00
2018-10-03T09:12:34.275Z,65.60
2018-10-03T09:15:01.761Z,65.60
2018-10-03T09:17:29.302Z,65.20
2018-10-03T09:19:56.762Z,63.90
2018-10-03T09:22:24.243Z,64.40
2018-10-03T09:24:51.806Z,63.90
2018-10-03T09:27:19.245Z,63.00
2018-10-03T09:29:46.869Z,62.00
2018-10-03T09:32:14.445Z,62.00
2018-10-03T09:34:41.971Z,61.50
2018-10-03T09:37:09.484Z,60.80
2018-10-03T09:39:37.239Z,60.90
2018-10-03T09:42:04.701Z,60.10
2018-10-03T09:44:32.232Z,58.30
2018-10-03T09:46:59.712Z,58.60
2018-10-03T09:49:27.134Z,58.00
2018-10-03T09:51:54.666Z,57.10
2018-10-03T09:54:22.131Z,57.30
2018-10-03T09:56:49.605Z,56.10
2018-10-03T09:59:17.181Z,56.40
2018-10-03T10:01:44.689Z,55.70
2018-10-03T10:04:12.223Z,55.60
2018-10-03T10:06:39.707Z,55.30
2018-10-03T10:09:08.441Z,55.10
2018-10-03T10:11:37.477Z,53.70
2018-10-03T10:14:04.975Z,53.20
2018-10-03T10:16:32.590Z,52.70
2018-10-03T10:19:00.113Z,53.20
2018-10-03T10:21:27.570Z,53.90
2018-10-03T10:23:55.036Z,53.70
2018-10-03T10:26:22.469Z,52.70
2018-10-03T10:28:49.948Z,52.70
2018-10-03T10:31:17.398Z,51.80
2018-10-03T10:33:44.881Z,52.50
2018-10-03T10:36:12.357Z,51.30
2018-10-03T10:38:39.869Z,51.50
2018-10-03T10:41:07.416Z,51.70
2018-10-03T10:43:35.072Z,50.70
2018-10-03T10:46:02.571Z,50.70
2018-10-03T10:48:30.067Z,50.60
2018-10-03T10:50:57.596Z,51.80
2018-10-03T10:53:25.222Z,51.60
2018-10-03T10:55:52.851Z,50.30
2018-10-03T10:58:20.458Z,52.10
2018-10-03T11:00:47.958Z,51.20
2018-10-03T11:03:16.448Z,50.10
2018-10-03T11:05:44.295Z,47.00
2018-10-03T11:08:11.981Z,46.50
2018-10-03T11:10:39.460Z,45.10
2018-10-03T11:13:07.022Z,44.70
2018-10-03T11:15:34.575Z,44.10
2018-10-03T11:18:01.985Z,46.00
2018-10-03T11:20:29.469Z,44.70
2018-10-03T11:22:56.957Z,43.80
2018-10-03T11:25:24.485Z,43.20
2018-10-03T11:27:51.919Z,44.00
2018-10-03T11:30:19.450Z,45.70
2018-10-03T11:32:47.020Z,44.10
2018-10-03T11:35:14.497Z,43.90
2018-10-03T11:37:42.074Z,43.30
2018-10-03T11:40:09.593Z,44.80
2018-10-03T11:42:37.207Z,43.50
2018-10-03T11:45:04.959Z,44.00
2018-10-03T11:47:32.402Z,45.20
2018-10-03T11:49:59.842Z,45.40
2018-10-03T11:52:27.322Z,43.00
2018-10-03T11:54:54.800Z,44.40
2018-10-03T11:57:22.362Z,46.00
2018-10-03T11:59:49.838Z,45.80
2018-10-03T12:02:17.308Z,46.20
2018-10-03T12:04:44.850Z,45.60
2018-10-03T12:07:12.354Z,45.80
2018-10-03T12:09:39.830Z,45.60
2018-10-03T12:12:07.311Z,45.60
2018-10-03T12:14:34.770Z,45.90
2018-10-03T12:17:02.255Z,45.40
2018-10-03T12:19:29.739Z,47.20
2018-10-03T12:21:58.290Z,47.90
2018-10-03T12:24:25.779Z,47.90
2018-10-03T12:26:53.255Z,49.40
2018-10-03T12:29:21.331Z,48.60
2018-10-03T12:31:49.412Z,47.40
2018-10-03T12:34:16.893Z,48.40
2018-10-03T12:36:44.373Z,48.20
2018-10-03T12:39:12.922Z,48.30
2018-10-03T12:41:40.459Z,48.60
2018-10-03T12:44:07.963Z,46.80
2018-10-03T12:46:35.920Z,48.80
2018-10-03T12:49:03.403Z,48.90
2018-10-03T12:51:30.863Z,49.00
2018-10-03T12:53:58.357Z,50.60
2018-10-03T12:56:25.907Z,49.30
2018-10-03T12:58:53.395Z,49.70
2018-10-03T13:01:20.925Z,50.20
2018-10-03T13:03:48.341Z,50.10
2018-10-03T13:06:15.873Z,50.30
2018-10-03T13:08:43.359Z,50.20
2018-10-03T13:11:10.806Z,50.00
2018-10-03T13:13:38.292Z,50.30
2018-10-03T13:16:05.811Z,50.60
2018-10-03T13:18:33.246Z,50.80
2018-10-03T13:21:00.740Z,51.50
2018-10-03T13:23:28.360Z,51.10
2018-10-03T13:25:55.932Z,51.00
2018-10-03T13:28:23.435Z,50.70
2018-10-03T13:30:50.933Z,51.30
2018-10-03T13:33:18.404Z,52.10
2018-10-03T13:35:45.975Z,52.10
2018-10-03T13:38:13.445Z,51.90
2018-10-03T13:40:40.918Z,52.20
2018-10-03T13:43:08.442Z,52.60
2018-10-03T13:45:36.017Z,51.90
2018-10-03T13:48:03.549Z,52.40
2018-10-03T13:50:31.057Z,52.30
2018-10-03T13:52:58.611Z,52.10
2018-10-03T13:55:26.102Z,51.20
2018-10-03T13:57:53.554Z,51.00
2018-10-03T14:00:21.008Z,51.60
2018-10-03T14:02:48.508Z,52.30
2018-10-03T14:05:15.978Z,51.70
2018-10-03T14:07:43.493Z,52.10
2018-10-03T14:10:10.974Z,51.20
2018-10-03T14:12:38.434Z,49.80
2018-10-03T14:15:06.020Z,49.70
2018-10-03T14:17:33.514Z,48.30
2018-10-03T14:20:00.993Z,49.10
2018-10-03T14:22:28.429Z,49.20
2018-10-03T14:24:55.940Z,49.80
2018-10-03T14:27:23.943Z,50.40
2018-10-03T14:29:51.397Z,50.30
2018-10-03T14:32:18.916Z,50.60
2018-10-03T14:34:46.529Z,51.00
2018-10-03T14:37:14.192Z,50.20
2018-10-03T14:39:41.722Z,50.10
2018-10-03T14:42:09.180Z,51.30
2018-10-03T14:44:36.674Z,51.40
2018-10-03T14:47:04.221Z,51.30
2018-10-03T14:49:31.706Z,52.10
2018-10-03T14:51:59.252Z,52.40
2018-10-03T14:54:26.695Z,52.60
2018-10-03T14:56:54.138Z,51.90
2018-10-03T14:59:21.584Z,51.30
2018-10-03T15:01:49.165Z,51.80
2018-10-03T15:04:16.618Z,51.40
2018-10-03T15:06:44.071Z,51.00
2018-10-03T15:09:11.535Z,51.50
2018-10-03T15:11:39.007Z,52.00
2018-10-03T15:14:06.620Z,52.40
2018-10-03T15:16:34.117Z,52.90
2018-10-03T15:19:02.817Z,53.10
2018-10-03T15:21:30.273Z,53.60
2018-10-03T15:23:57.792Z,53.90
2018-10-03T15:26:25.278Z,54.00
2018-10-03T15:28:52.767Z,54.10
2018-10-03T15:31:20.243Z,53.80
2018-10-03T15:33:47.771Z,53.60
2018-10-03T15:36:15.258Z,54.00
2018-10-03T15:38:42.723Z,54.10
2018-10-03T15:41:10.221Z,54.10
2018-10-03T15:43:37.721Z,54.30
2018-10-03T15:46:05.173Z,54.10
2018-10-03T15:48:32.641Z,54.00
2018-10-03T15:51:00.133Z,53.90
2018-10-03T15:53:27.586Z,53.70
2018-10-03T15:55:55.167Z,54.00
2018-10-03T15:58:22.642Z,54.00
2018-10-03T16:00:50.152Z,53.70
2018-10-03T16:03:17.682Z,53.80
2018-10-03T16:05:45.147Z,53.50
2018-10-03T16:08:12.657Z,53.60
2018-10-03T16:10:40.095Z,53.90
2018-10-03T16:13:07.703Z,54.10
2018-10-03T16:15:35.160Z,54.10
2018-10-03T16:18:02.711Z,54.30
2018-10-03T16:20:30.199Z,54.40
2018-10-03T16:22:57.660Z,54.30
2018-10-03T16:25:25.134Z,54.40
2018-10-03T16:27:52.652Z,54.70
2018-10-03T16:30:20.113Z,54.70
2018-10-03T16:32:47.546Z,55.00
2018-10-03T16:35:15.054Z,55.20
2018-10-03T16:37:42.567Z,55.30
2018-10-03T16:40:09.995Z,55.50
2018-10-03T16:42:37.443Z,55.60
2018-10-03T16:45:05.163Z,55.40
2018-10-03T16:47:32.650Z,55.70
2018-10-03T16:50:00.123Z,55.70
2018-10-03T16:52:27.614Z,55.90
2018-10-03T16:54:55.095Z,55.80
2018-10-03T16:57:22.562Z,55.90
2018-10-03T16:59:50.053Z,55.90
2018-10-03T17:02:17.531Z,56.10
2018-10-03T17:04:45.004Z,56.20
2018-10-03T17:07:12.496Z,56.20
2018-10-03T17:09:40.042Z,56.40
2018-10-03T17:12:07.563Z,56.30
2018-10-03T17:14:39.480Z,56.40
2018-10-03T17:17:07.606Z,56.70
2018-10-03T17:19:35.288Z,57.30
2018-10-03T17:22:03.154Z,57.60
2018-10-03T17:24:31.971Z,57.50
2018-10-03T17:26:59.640Z,57.60
2018-10-03T17:29:27.176Z,58.40
2018-10-03T17:31:54.767Z,58.60
2018-10-03T17:34:22.282Z,58.50
2018-10-03T17:36:51.051Z,58.70
2018-10-03T17:39:18.986Z,58.70
2018-10-03T17:41:46.560Z,58.90
2018-10-03T17:44:15.036Z,58.70
2018-10-03T17:46:42.560Z,59.00
2018-10-03T17:49:10.175Z,59.10
2018-10-03T17:51:37.638Z,58.70
2018-10-03T17:54:05.171Z,59.30
2018-10-03T17:56:32.689Z,59.00
2018-10-03T17:59:00.196Z,60.00
2018-10-03T18:01:29.035Z,60.60
2018-10-03T18:03:56.659Z,59.80
2018-10-03T18:06:24.210Z,59.50
2018-10-03T18:08:51.670Z,59.80
2018-10-03T18:11:19.634Z,59.30
2018-10-03T18:13:47.134Z,59.30
2018-10-03T18:16:15.053Z,60.70
2018-10-03T18:18:42.562Z,59.70
2018-10-03T18:21:10.101Z,59.70
2018-10-03T18:23:37.571Z,59.80
2018-10-03T18:26:05.103Z,60.30
2018-10-03T18:28:32.717Z,61.00
2018-10-03T18:31:00.267Z,60.90
2018-10-03T18:33:27.999Z,60.10
2018-10-03T18:35:55.769Z,60.00
2018-10-03T18:38:23.612Z,60.20
2018-10-03T18:40:51.375Z,60.10
2018-10-03T18:43:19.233Z,60.30
2018-10-03T18:45:47.001Z,60.40
2018-10-03T18:48:14.807Z,60.80
2018-10-03T18:50:42.601Z,61.00
2018-10-03T18:53:10.505Z,60.80
2018-10-03T18:55:38.410Z,60.20
2018-10-03T18:58:06.195Z,60.80
2018-10-03T19:00:34.012Z,60.70
2018-10-03T19:03:01.866Z,61.30
2018-10-03T19:05:29.714Z,60.30
2018-10-03T19:07:57.539Z,60.50
2018-10-03T19:10:25.377Z,60.60
2018-10-03T19:12:53.246Z,60.70
2018-10-03T19:15:21.034Z,60.60
2018-10-03T19:17:48.865Z,61.10
2018-10-03T19:20:16.770Z,61.00
2018-10-03T19:22:44.516Z,60.70
2018-10-03T19:25:12.399Z,60.60
2018-10-03T19:27:40.599Z,61.20
2018-10-03T19:30:08.429Z,60.90
2018-10-03T19:32:36.300Z,62.30
2018-10-03T19:35:04.210Z,62.00
2018-10-03T19:37:32.023Z,62.40
2018-10-03T19:39:59.825Z,60.80
2018-10-03T19:42:27.648Z,61.90
2018-10-03T19:44:55.436Z,62.10
2018-10-03T19:47:23.190Z,61.50
2018-10-03T19:49:50.854Z,61.10
2018-10-03T19:52:18.370Z,62.50
2018-10-03T19:54:45.902Z,62.00
2018-10-03T19:57:13.430Z,61.80
2018-10-03T19:59:40.948Z,62.10
2018-10-03T20:02:08.786Z,63.50
2018-10-03T20:04:36.323Z,61.70
2018-10-03T20:07:03.946Z,62.70
2018-10-03T20:09:31.397Z,63.30
2018-10-03T20:11:58.992Z,61.80
2018-10-03T20:14:26.490Z,62.60
2018-10-03T20:16:53.976Z,63.30
2018-10-03T20:19:21.508Z,63.10
2018-10-03T20:21:48.964Z,63.30
2018-10-03T20:24:16.426Z,62.40
2018-10-03T20:26:43.968Z,61.60
2018-10-03T20:29:11.428Z,63.20
2018-10-03T20:31:38.830Z,62.90
2018-10-03T20:34:06.578Z,62.30
2018-10-03T20:36:34.016Z,62.10
2018-10-03T20:39:02.499Z,64.30
2018-10-03T20:41:29.976Z,63.50
2018-10-03T20:43:57.522Z,63.50
2018-10-03T20:46:25.042Z,63.80
2018-10-03T20:48:52.559Z,64.00
2018-10-03T20:51:20.089Z,63.80
2018-10-03T20:53:47.576Z,64.20
2018-10-03T20:56:15.071Z,64.10
2018-10-03T20:58:42.582Z,64.60
2018-10-03T21:01:10.118Z,64.10
2018-10-03T21:03:37.603Z,64.30
2018-10-03T21:06:05.081Z,64.70
2018-10-03T21:08:32.556Z,65.30
2018-10-03T21:11:00.043Z,64.50
2018-10-03T21:13:27.493Z,64.40
2018-10-03T21:15:54.964Z,63.20
2018-10-03T21:18:22.435Z,63.90
2018-10-03T21:20:49.913Z,62.10
2018-10-03T21:23:17.394Z,62.50
2018-10-03T21:25:44.911Z,62.50
2018-10-03T21:28:12.381Z,62.70
2018-10-03T21:30:39.905Z,62.60
2018-10-03T21:33:07.399Z,62.80
2018-10-03T21:35:34.898Z,62.50
2018-10-03T21:38:02.385Z,62.80
2018-10-03T21:40:29.861Z,63.70
2018-10-03T21:42:57.342Z,65.10
2018-10-03T21:45:24.843Z,65.00
2018-10-03T21:47:52.363Z,65.00
2018-10-03T21:50:19.812Z,64.80
2018-10-03T21:52:47.283Z,65.40
2018-10-03T21:55:14.774Z,63.50
2018-10-03T21:57:42.258Z,64.20
2018-10-03T22:00:09.782Z,64.80
2018-10-03T22:02:37.612Z,65.00
2018-10-03T22:05:07.350Z,66.00
2018-10-03T22:07:34.823Z,66.10
2018-10-03T22:10:02.306Z,64.90
2018-10-03T22:12:29.757Z,64.60
2018-10-03T22:14:57.257Z,65.00
2018-10-03T22:17:25.118Z,66.60
2018-10-03T22:19:53.958Z,66.10
2018-10-03T22:22:21.379Z,66.10
2018-10-03T22:24:49.105Z,66.50
2018-10-03T22:27:16.739Z,66.60
2018-10-03T22:29:44.510Z,66.30
2018-10-03T22:32:11.937Z,66.50
2018-10-03T22:34:39.597Z,65.90
2018-10-03T22:37:07.478Z,65.00
2018-10-03T22:39:34.983Z,65.40
2018-10-03T22:42:02.486Z,66.40
2018-10-03T22:44:30.158Z,67.30
2018-10-03T22:46:57.688Z,68.30
2018-10-03T22:49:25.138Z,67.10
2018-10-03T22:51:52.619Z,67.10
2018-10-03T22:54:20.050Z,66.20
2018-10-03T22:56:47.508Z,68.30
2018-10-03T22:59:14.977Z,68.00
2018-10-03T23:01:42.439Z,68.80
2018-10-03T23:04:09.898Z,68.40
2018-10-03T23:06:37.366Z,67.80
2018-10-03T23:09:05.977Z,67.10
2018-10-03T23:11:33.463Z,66.90
2018-10-03T23:14:01.027Z,69.20
2018-10-03T23:16:28.579Z,68.90
2018-10-03T23:18:56.014Z,66.80
2018-10-03T23:21:23.441Z,65.90
2018-10-03T23:23:50.869Z,67.00
2018-10-03T23:26:18.290Z,66.60
2018-10-03T23:28:45.761Z,69.10
2018-10-03T23:31:13.209Z,69.50
2018-10-03T23:33:40.657Z,69.00
2018-10-03T23:36:08.127Z,69.00
2018-10-03T23:38:35.594Z,68.00
2018-10-03T23:41:03.229Z,67.60
2018-10-03T23:43:30.966Z,69.40
2018-10-03T23:45:58.469Z,68.00
2018-10-03T23:48:26.007Z,68.70
2018-10-03T23:50:53.442Z,69.20
2018-10-03T23:53:21.098Z,67.60
2018-10-03T23:55:48.591Z,68.60
2018-10-03T23:58:16.130Z,68.50
